sensor_id;sensor_type;location;lat;lon;timestamp;pressure;altitude;pressure_sealevel;temperature;humidity
44441;BME280;30146;52.268;20.944;2023-04-06T00:00:52;100956.90;;;3.24;44.79
44441;BME280;30146;52.268;20.944;2023-04-06T00:03:23;100954.52;;;3.24;44.89
44441;BME280;30146;52.268;20.944;2023-04-06T00:05:54;100954.52;;;3.24;45.27
44441;BME280;30146;52.268;20.944;2023-04-06T00:08:25;100950.81;;;3.24;45.01
44441;BME280;30146;52.268;20.944;2023-04-06T00:10:56;100948.45;;;3.24;45.36
44441;BME280;30146;52.268;20.944;2023-04-06T00:13:26;100950.13;;;3.23;45.48
44441;BME280;30146;52.268;20.944;2023-04-06T00:15:57;100942.36;;;3.24;45.29
44441;BME280;30146;52.268;20.944;2023-04-06T00:18:28;100944.25;;;3.25;45.30
44441;BME280;30146;52.268;20.944;2023-04-06T00:20:59;100941.88;;;3.25;45.41
44441;BME280;30146;52.268;20.944;2023-04-06T00:23:29;100941.36;;;3.24;45.35
44441;BME280;30146;52.268;20.944;2023-04-06T00:26:00;100939.67;;;3.25;45.51
44441;BME280;30146;52.268;20.944;2023-04-06T00:28:31;100937.35;;;3.26;45.29
44441;BME280;30146;52.268;20.944;2023-04-06T00:31:02;100936.85;;;3.26;45.27
44441;BME280;30146;52.268;20.944;2023-04-06T00:33:33;100938.75;;;3.28;45.10
44441;BME280;30146;52.268;20.944;2023-04-06T00:36:05;100933.69;;;3.27;45.24
44441;BME280;30146;52.268;20.944;2023-04-06T00:38:36;100930.14;;;3.27;45.20
44441;BME280;30146;52.268;20.944;2023-04-06T00:41:07;100930.14;;;3.28;45.19
44441;BME280;30146;52.268;20.944;2023-04-06T00:43:37;100927.45;;;3.28;44.96
44441;BME280;30146;52.268;20.944;2023-04-06T00:46:09;100923.02;;;3.27;45.03
44441;BME280;30146;52.268;20.944;2023-04-06T00:48:39;100925.83;;;3.25;44.91
44441;BME280;30146;52.268;20.944;2023-04-06T00:51:11;100924.09;;;3.23;44.52
44441;BME280;30146;52.268;20.944;2023-04-06T00:53:42;100924.91;;;3.22;44.73
44441;BME280;30146;52.268;20.944;2023-04-06T00:56:13;100924.23;;;3.22;44.92
44441;BME280;30146;52.268;20.944;2023-04-06T00:58:51;100919.45;;;3.20;44.73
44441;BME280;30146;52.268;20.944;2023-04-06T01:01:22;100921.95;;;3.19;44.87
44441;BME280;30146;52.268;20.944;2023-04-06T01:03:54;100922.95;;;3.19;44.88
44441;BME280;30146;52.268;20.944;2023-04-06T01:06:25;100919.56;;;3.19;44.67
44441;BME280;30146;52.268;20.944;2023-04-06T01:09:03;100919.38;;;3.18;45.12
44441;BME280;30146;52.268;20.944;2023-04-06T01:11:34;100919.83;;;3.16;44.78
44441;BME280;30146;52.268;20.944;2023-04-06T01:14:07;100913.39;;;3.16;44.98
44441;BME280;30146;52.268;20.944;2023-04-06T01:16:48;100911.21;;;3.16;45.05
44441;BME280;30146;52.268;20.944;2023-04-06T01:19:23;100913.46;;;3.18;45.27
44441;BME280;30146;52.268;20.944;2023-04-06T01:21:54;100912.13;;;3.19;45.31
44441;BME280;30146;52.268;20.944;2023-04-06T01:24:31;100912.66;;;3.20;45.39
44441;BME280;30146;52.268;20.944;2023-04-06T01:27:02;100907.59;;;3.19;45.05
44441;BME280;30146;52.268;20.944;2023-04-06T01:29:53;100904.05;;;3.19;45.18
44441;BME280;30146;52.268;20.944;2023-04-06T01:32:36;100904.55;;;3.20;45.50
44441;BME280;30146;52.268;20.944;2023-04-06T01:35:09;100902.04;;;3.20;45.50
44441;BME280;30146;52.268;20.944;2023-04-06T01:37:45;100900.18;;;3.20;45.24
44441;BME280;30146;52.268;20.944;2023-04-06T01:40:19;100898.84;;;3.21;45.54
44441;BME280;30146;52.268;20.944;2023-04-06T01:42:51;100898.38;;;3.22;45.64
44441;BME280;30146;52.268;20.944;2023-04-06T01:48:33;100894.82;;;3.22;45.50
44441;BME280;30146;52.268;20.944;2023-04-06T01:51:11;100895.54;;;3.23;45.70
44441;BME280;30146;52.268;20.944;2023-04-06T01:53:48;100893.56;;;3.25;45.73
44441;BME280;30146;52.268;20.944;2023-04-06T01:56:20;100890.58;;;3.27;45.77
44441;BME280;30146;52.268;20.944;2023-04-06T01:59:09;100887.23;;;3.29;45.57
44441;BME280;30146;52.268;20.944;2023-04-06T02:01:43;100888.95;;;3.29;45.66
44441;BME280;30146;52.268;20.944;2023-04-06T02:04:15;100885.91;;;3.30;45.68
44441;BME280;30146;52.268;20.944;2023-04-06T02:06:47;100888.30;;;3.30;45.63
44441;BME280;30146;52.268;20.944;2023-04-06T02:09:18;100885.79;;;3.31;45.92
44441;BME280;30146;52.268;20.944;2023-04-06T02:11:49;100882.92;;;3.31;45.88
44441;BME280;30146;52.268;20.944;2023-04-06T02:14:21;100881.08;;;3.32;46.04
44441;BME280;30146;52.268;20.944;2023-04-06T02:16:53;100881.23;;;3.31;46.01
44441;BME280;30146;52.268;20.944;2023-04-06T02:19:25;100880.38;;;3.31;45.92
44441;BME280;30146;52.268;20.944;2023-04-06T02:21:56;100874.95;;;3.30;46.21
44441;BME280;30146;52.268;20.944;2023-04-06T02:24:27;100873.20;;;3.29;46.27
44441;BME280;30146;52.268;20.944;2023-04-06T02:26:58;100875.92;;;3.29;46.27
44441;BME280;30146;52.268;20.944;2023-04-06T02:29:30;100872.88;;;3.28;46.25
44441;BME280;30146;52.268;20.944;2023-04-06T02:32:01;100870.27;;;3.26;46.46
44441;BME280;30146;52.268;20.944;2023-04-06T02:34:34;100867.88;;;3.24;46.54
44441;BME280;30146;52.268;20.944;2023-04-06T02:37:05;100867.84;;;3.24;46.56
44441;BME280;30146;52.268;20.944;2023-04-06T02:39:36;100866.80;;;3.23;46.67
44441;BME280;30146;52.268;20.944;2023-04-06T02:42:09;100863.73;;;3.21;46.79
44441;BME280;30146;52.268;20.944;2023-04-06T02:44:40;100863.84;;;3.20;46.91
44441;BME280;30146;52.268;20.944;2023-04-06T02:47:11;100860.07;;;3.18;46.86
44441;BME280;30146;52.268;20.944;2023-04-06T02:49:43;100860.53;;;3.16;47.19
44441;BME280;30146;52.268;20.944;2023-04-06T02:52:17;100861.87;;;3.16;47.02
44441;BME280;30146;52.268;20.944;2023-04-06T02:54:48;100859.81;;;3.15;46.88
44441;BME280;30146;52.268;20.944;2023-04-06T02:57:25;100860.00;;;3.16;47.33
44441;BME280;30146;52.268;20.944;2023-04-06T02:59:56;100861.52;;;3.15;47.19
44441;BME280;30146;52.268;20.944;2023-04-06T03:02:34;100860.94;;;3.13;47.43
44441;BME280;30146;52.268;20.944;2023-04-06T03:05:08;100863.29;;;3.13;47.55
44441;BME280;30146;52.268;20.944;2023-04-06T03:07:42;100865.59;;;3.10;47.67
44441;BME280;30146;52.268;20.944;2023-04-06T03:10:29;100866.34;;;3.07;47.71
44441;BME280;30146;52.268;20.944;2023-04-06T03:13:00;100864.72;;;3.03;47.72
44441;BME280;30146;52.268;20.944;2023-04-06T03:15:44;100865.80;;;3.00;47.88
44441;BME280;30146;52.268;20.944;2023-04-06T03:18:22;100865.60;;;2.99;47.47
44441;BME280;30146;52.268;20.944;2023-04-06T03:20:55;100860.83;;;2.98;47.81
44441;BME280;30146;52.268;20.944;2023-04-06T03:23:30;100864.69;;;2.97;48.06
44441;BME280;30146;52.268;20.944;2023-04-06T03:26:03;100866.35;;;2.96;48.11
44441;BME280;30146;52.268;20.944;2023-04-06T03:28:34;100871.17;;;2.94;48.04
44441;BME280;30146;52.268;20.944;2023-04-06T03:31:07;100870.44;;;2.92;48.18
44441;BME280;30146;52.268;20.944;2023-04-06T03:34:00;100872.56;;;2.89;48.37
44441;BME280;30146;52.268;20.944;2023-04-06T03:36:33;100872.13;;;2.86;48.38
44441;BME280;30146;52.268;20.944;2023-04-06T03:39:05;100872.23;;;2.83;48.28
44441;BME280;30146;52.268;20.944;2023-04-06T03:41:39;100869.24;;;2.80;48.54
44441;BME280;30146;52.268;20.944;2023-04-06T03:44:36;100869.87;;;2.78;48.49
44441;BME280;30146;52.268;20.944;2023-04-06T03:47:08;100869.65;;;2.76;48.61
44441;BME280;30146;52.268;20.944;2023-04-06T03:49:38;100867.56;;;2.75;48.78
44441;BME280;30146;52.268;20.944;2023-04-06T03:52:11;100867.19;;;2.73;48.69
44441;BME280;30146;52.268;20.944;2023-04-06T03:54:42;100866.65;;;2.72;48.90
44441;BME280;30146;52.268;20.944;2023-04-06T03:57:13;100869.64;;;2.71;48.92
44441;BME280;30146;52.268;20.944;2023-04-06T03:59:44;100869.94;;;2.69;48.96
44441;BME280;30146;52.268;20.944;2023-04-06T04:02:15;100871.23;;;2.67;48.92
44441;BME280;30146;52.268;20.944;2023-04-06T04:04:46;100873.09;;;2.67;49.15
44441;BME280;30146;52.268;20.944;2023-04-06T04:07:17;100869.40;;;2.68;49.09
44441;BME280;30146;52.268;20.944;2023-04-06T04:09:48;100872.94;;;2.68;49.30
44441;BME280;30146;52.268;20.944;2023-04-06T04:12:19;100869.54;;;2.67;49.37
44441;BME280;30146;52.268;20.944;2023-04-06T04:14:50;100871.63;;;2.69;49.44
44441;BME280;30146;52.268;20.944;2023-04-06T04:17:24;100871.81;;;2.70;49.35
44441;BME280;30146;52.268;20.944;2023-04-06T04:19:55;100872.34;;;2.71;49.42
44441;BME280;30146;52.268;20.944;2023-04-06T04:22:27;100872.80;;;2.69;49.47
44441;BME280;30146;52.268;20.944;2023-04-06T04:24:58;100871.95;;;2.69;49.55
44441;BME280;30146;52.268;20.944;2023-04-06T04:27:32;100868.41;;;2.69;49.48
44441;BME280;30146;52.268;20.944;2023-04-06T04:30:03;100864.88;;;2.69;49.55
44441;BME280;30146;52.268;20.944;2023-04-06T04:32:35;100858.48;;;2.70;49.61
44441;BME280;30146;52.268;20.944;2023-04-06T04:35:09;100860.54;;;2.71;49.63
44441;BME280;30146;52.268;20.944;2023-04-06T04:37:42;100861.10;;;2.73;49.69
44441;BME280;30146;52.268;20.944;2023-04-06T04:40:14;100859.45;;;2.74;49.80
44441;BME280;30146;52.268;20.944;2023-04-06T04:42:51;100857.16;;;2.77;49.63
44441;BME280;30146;52.268;20.944;2023-04-06T04:45:27;100859.93;;;2.79;49.69
44441;BME280;30146;52.268;20.944;2023-04-06T04:47:58;100857.78;;;2.80;49.63
44441;BME280;30146;52.268;20.944;2023-04-06T04:50:33;100851.95;;;2.83;49.93
44441;BME280;30146;52.268;20.944;2023-04-06T04:53:04;100846.42;;;2.85;49.93
44441;BME280;30146;52.268;20.944;2023-04-06T04:55:36;100846.01;;;2.87;49.78
44441;BME280;30146;52.268;20.944;2023-04-06T04:58:07;100849.07;;;2.88;49.98
44441;BME280;30146;52.268;20.944;2023-04-06T05:00:57;100845.73;;;2.89;50.19
44441;BME280;30146;52.268;20.944;2023-04-06T05:03:31;100845.60;;;2.91;50.01
44441;BME280;30146;52.268;20.944;2023-04-06T05:06:06;100840.55;;;2.92;50.00
44441;BME280;30146;52.268;20.944;2023-04-06T05:08:42;100842.10;;;2.92;50.04
44441;BME280;30146;52.268;20.944;2023-04-06T05:11:14;100843.83;;;2.93;49.95
44441;BME280;30146;52.268;20.944;2023-04-06T05:13:47;100841.64;;;2.94;50.31
44441;BME280;30146;52.268;20.944;2023-04-06T05:16:21;100845.01;;;2.94;50.01
44441;BME280;30146;52.268;20.944;2023-04-06T05:18:52;100847.55;;;2.94;50.01
44441;BME280;30146;52.268;20.944;2023-04-06T05:24:04;100853.39;;;2.98;49.92
44441;BME280;30146;52.268;20.944;2023-04-06T05:26:35;100853.52;;;3.02;50.48
44441;BME280;30146;52.268;20.944;2023-04-06T05:29:12;100852.13;;;3.05;50.39
44441;BME280;30146;52.268;20.944;2023-04-06T05:31:43;100851.42;;;3.11;50.38
44441;BME280;30146;52.268;20.944;2023-04-06T05:34:14;100849.10;;;3.18;50.19
44441;BME280;30146;52.268;20.944;2023-04-06T05:36:48;100846.11;;;3.26;50.55
44441;BME280;30146;52.268;20.944;2023-04-06T05:39:22;100850.06;;;3.35;50.09
44441;BME280;30146;52.268;20.944;2023-04-06T05:41:55;100847.32;;;3.45;50.23
44441;BME280;30146;52.268;20.944;2023-04-06T05:44:50;100843.70;;;3.54;50.16
44441;BME280;30146;52.268;20.944;2023-04-06T05:47:24;100843.92;;;3.63;49.99
44441;BME280;30146;52.268;20.944;2023-04-06T05:50:06;100840.05;;;3.77;49.98
44441;BME280;30146;52.268;20.944;2023-04-06T05:52:39;100837.87;;;3.91;49.89
44441;BME280;30146;52.268;20.944;2023-04-06T05:55:14;100830.64;;;4.05;49.98
44441;BME280;30146;52.268;20.944;2023-04-06T05:57:53;100826.70;;;4.24;49.93
44441;BME280;30146;52.268;20.944;2023-04-06T06:00:24;100825.11;;;4.51;50.22
44441;BME280;30146;52.268;20.944;2023-04-06T06:03:01;100823.43;;;4.81;49.74
44441;BME280;30146;52.268;20.944;2023-04-06T06:05:36;100825.05;;;5.11;49.74
44441;BME280;30146;52.268;20.944;2023-04-06T06:08:20;100822.88;;;5.37;49.20
44441;BME280;30146;52.268;20.944;2023-04-06T06:10:55;100818.98;;;5.56;48.83
44441;BME280;30146;52.268;20.944;2023-04-06T06:13:26;100817.72;;;5.70;48.55
44441;BME280;30146;52.268;20.944;2023-04-06T06:15:59;100819.77;;;5.90;48.10
44441;BME280;30146;52.268;20.944;2023-04-06T06:18:37;100806.92;;;6.11;48.18
44441;BME280;30146;52.268;20.944;2023-04-06T06:21:09;100816.16;;;6.37;47.87
44441;BME280;30146;52.268;20.944;2023-04-06T06:23:43;100814.79;;;6.60;47.52
44441;BME280;30146;52.268;20.944;2023-04-06T06:26:17;100812.14;;;6.77;47.00
44441;BME280;30146;52.268;20.944;2023-04-06T06:28:49;100812.17;;;6.93;46.69
44441;BME280;30146;52.268;20.944;2023-04-06T06:31:23;100810.80;;;7.03;46.47
44441;BME280;30146;52.268;20.944;2023-04-06T06:33:56;100814.44;;;7.09;46.10
44441;BME280;30146;52.268;20.944;2023-04-06T06:36:28;100813.48;;;7.15;45.81
44441;BME280;30146;52.268;20.944;2023-04-06T06:39:00;100808.61;;;7.20;45.56
44441;BME280;30146;52.268;20.944;2023-04-06T06:41:42;100811.95;;;7.29;45.42
44441;BME280;30146;52.268;20.944;2023-04-06T06:44:13;100802.18;;;7.39;45.24
44441;BME280;30146;52.268;20.944;2023-04-06T06:46:47;100799.66;;;7.41;45.07
44441;BME280;30146;52.268;20.944;2023-04-06T06:49:26;100803.34;;;7.34;44.65
44441;BME280;30146;52.268;20.944;2023-04-06T06:51:59;100798.98;;;7.25;44.54
44441;BME280;30146;52.268;20.944;2023-04-06T06:54:35;100800.91;;;7.17;44.57
44441;BME280;30146;52.268;20.944;2023-04-06T06:57:10;100798.95;;;7.08;44.44
44441;BME280;30146;52.268;20.944;2023-04-06T06:59:43;100795.41;;;6.97;44.36
44441;BME280;30146;52.268;20.944;2023-04-06T07:02:14;100794.59;;;6.87;44.30
44441;BME280;30146;52.268;20.944;2023-04-06T07:04:51;100795.81;;;6.76;44.25
44441;BME280;30146;52.268;20.944;2023-04-06T07:07:22;100795.09;;;6.71;44.55
44441;BME280;30146;52.268;20.944;2023-04-06T07:09:53;100793.86;;;6.69;44.52
44441;BME280;30146;52.268;20.944;2023-04-06T07:12:24;100797.92;;;6.68;44.60
44441;BME280;30146;52.268;20.944;2023-04-06T07:14:56;100799.04;;;6.75;44.66
44441;BME280;30146;52.268;20.944;2023-04-06T07:17:27;100799.41;;;6.90;44.86
44441;BME280;30146;52.268;20.944;2023-04-06T07:19:59;100798.74;;;7.19;45.10
44441;BME280;30146;52.268;20.944;2023-04-06T07:22:33;100794.29;;;7.48;44.95
44441;BME280;30146;52.268;20.944;2023-04-06T07:25:05;100792.86;;;7.75;44.80
44441;BME280;30146;52.268;20.944;2023-04-06T07:27:36;100789.48;;;7.99;44.48
44441;BME280;30146;52.268;20.944;2023-04-06T07:30:11;100787.86;;;8.06;43.97
44441;BME280;30146;52.268;20.944;2023-04-06T07:32:42;100785.60;;;8.01;43.73
44441;BME280;30146;52.268;20.944;2023-04-06T07:35:16;100783.60;;;7.88;43.37
44441;BME280;30146;52.268;20.944;2023-04-06T07:37:47;100783.62;;;7.70;43.16
44441;BME280;30146;52.268;20.944;2023-04-06T07:40:29;100785.96;;;7.48;43.11
44441;BME280;30146;52.268;20.944;2023-04-06T07:43:01;100789.48;;;7.28;43.33
44441;BME280;30146;52.268;20.944;2023-04-06T07:45:33;100788.11;;;7.12;43.47
44441;BME280;30146;52.268;20.944;2023-04-06T07:48:05;100790.11;;;6.95;43.58
44441;BME280;30146;52.268;20.944;2023-04-06T07:50:36;100788.23;;;6.81;43.66
44441;BME280;30146;52.268;20.944;2023-04-06T07:53:08;100787.23;;;6.69;43.78
44441;BME280;30146;52.268;20.944;2023-04-06T07:55:40;100788.97;;;6.60;43.96
44441;BME280;30146;52.268;20.944;2023-04-06T07:58:13;100784.34;;;6.57;44.09
44441;BME280;30146;52.268;20.944;2023-04-06T08:00:44;100783.15;;;6.57;44.22
44441;BME280;30146;52.268;20.944;2023-04-06T08:03:15;100780.09;;;6.56;44.19
44441;BME280;30146;52.268;20.944;2023-04-06T08:05:47;100783.45;;;6.53;44.28
44441;BME280;30146;52.268;20.944;2023-04-06T08:08:19;100778.13;;;6.50;44.33
44441;BME280;30146;52.268;20.944;2023-04-06T08:10:51;100779.06;;;6.44;44.25
44441;BME280;30146;52.268;20.944;2023-04-06T08:13:23;100776.41;;;6.36;44.17
44441;BME280;30146;52.268;20.944;2023-04-06T08:16:17;100776.52;;;6.31;44.42
44441;BME280;30146;52.268;20.944;2023-04-06T08:18:52;100771.45;;;6.22;44.47
44441;BME280;30146;52.268;20.944;2023-04-06T08:21:25;100773.95;;;6.19;44.80
44441;BME280;30146;52.268;20.944;2023-04-06T08:23:59;100773.41;;;6.18;44.91
44441;BME280;30146;52.268;20.944;2023-04-06T08:27:06;100772.45;;;6.22;45.22
44441;BME280;30146;52.268;20.944;2023-04-06T08:29:59;100772.14;;;6.23;45.18
44441;BME280;30146;52.268;20.944;2023-04-06T08:32:31;100773.91;;;6.17;45.17
44441;BME280;30146;52.268;20.944;2023-04-06T08:35:02;100776.05;;;6.13;45.56
44441;BME280;30146;52.268;20.944;2023-04-06T08:37:36;100777.54;;;6.09;45.69
44441;BME280;30146;52.268;20.944;2023-04-06T08:40:37;100773.61;;;6.09;45.77
44441;BME280;30146;52.268;20.944;2023-04-06T08:43:43;100771.69;;;6.15;46.34
44441;BME280;30146;52.268;20.944;2023-04-06T08:46:37;100772.25;;;6.19;46.62
44441;BME280;30146;52.268;20.944;2023-04-06T08:49:10;100773.80;;;6.21;46.55
44441;BME280;30146;52.268;20.944;2023-04-06T08:51:44;100770.52;;;6.17;46.63
44441;BME280;30146;52.268;20.944;2023-04-06T08:54:16;100765.31;;;6.10;46.63
44441;BME280;30146;52.268;20.944;2023-04-06T08:56:48;100766.36;;;6.00;46.43
44441;BME280;30146;52.268;20.944;2023-04-06T08:59:20;100768.54;;;5.90;46.72
44441;BME280;30146;52.268;20.944;2023-04-06T09:01:53;100761.86;;;5.77;46.81
44441;BME280;30146;52.268;20.944;2023-04-06T09:04:33;100758.31;;;5.67;46.94
44441;BME280;30146;52.268;20.944;2023-04-06T09:07:08;100760.21;;;5.60;47.35
44441;BME280;30146;52.268;20.944;2023-04-06T09:09:45;100759.99;;;5.56;47.79
44441;BME280;30146;52.268;20.944;2023-04-06T09:12:26;100760.46;;;5.54;47.72
44441;BME280;30146;52.268;20.944;2023-04-06T09:14:59;100751.42;;;5.51;47.85
44441;BME280;30146;52.268;20.944;2023-04-06T09:17:31;100750.98;;;5.47;47.86
44441;BME280;30146;52.268;20.944;2023-04-06T09:20:23;100750.86;;;5.39;47.71
44441;BME280;30146;52.268;20.944;2023-04-06T09:22:57;100747.97;;;5.29;48.19
44441;BME280;30146;52.268;20.944;2023-04-06T09:25:28;100746.30;;;5.21;48.30
44441;BME280;30146;52.268;20.944;2023-04-06T09:28:03;100745.21;;;5.17;48.25
44441;BME280;30146;52.268;20.944;2023-04-06T09:30:37;100737.16;;;5.13;48.74
44441;BME280;30146;52.268;20.944;2023-04-06T09:33:25;100736.42;;;5.10;48.86
44441;BME280;30146;52.268;20.944;2023-04-06T09:36:28;100735.80;;;5.04;48.95
44441;BME280;30146;52.268;20.944;2023-04-06T09:39:02;100731.13;;;4.98;48.93
44441;BME280;30146;52.268;20.944;2023-04-06T09:41:35;100727.61;;;4.92;49.14
44441;BME280;30146;52.268;20.944;2023-04-06T09:44:11;100729.23;;;4.89;49.49
44441;BME280;30146;52.268;20.944;2023-04-06T09:46:47;100728.04;;;4.88;49.69
44441;BME280;30146;52.268;20.944;2023-04-06T09:49:30;100726.17;;;4.88;49.67
44441;BME280;30146;52.268;20.944;2023-04-06T09:52:07;100722.41;;;4.87;49.61
44441;BME280;30146;52.268;20.944;2023-04-06T09:54:42;100713.06;;;4.85;49.89
44441;BME280;30146;52.268;20.944;2023-04-06T09:57:23;100712.84;;;4.82;49.95
44441;BME280;30146;52.268;20.944;2023-04-06T10:00:01;100712.61;;;4.79;50.40
44441;BME280;30146;52.268;20.944;2023-04-06T10:02:44;100712.33;;;4.73;50.54
44441;BME280;30146;52.268;20.944;2023-04-06T10:05:22;100705.51;;;4.71;50.92
44441;BME280;30146;52.268;20.944;2023-04-06T10:07:56;100704.04;;;4.65;51.07
44441;BME280;30146;52.268;20.944;2023-04-06T10:10:30;100707.84;;;4.61;51.29
44441;BME280;30146;52.268;20.944;2023-04-06T10:13:01;100705.06;;;4.58;51.27
44441;BME280;30146;52.268;20.944;2023-04-06T10:15:39;100698.94;;;4.56;51.47
44441;BME280;30146;52.268;20.944;2023-04-06T10:18:10;100696.41;;;4.57;51.57
44441;BME280;30146;52.268;20.944;2023-04-06T10:20:46;100691.95;;;4.63;52.10
44441;BME280;30146;52.268;20.944;2023-04-06T10:23:26;100689.38;;;4.69;52.04
44441;BME280;30146;52.268;20.944;2023-04-06T10:26:23;100688.83;;;4.75;52.05
44441;BME280;30146;52.268;20.944;2023-04-06T10:29:21;100691.21;;;4.76;52.06
44441;BME280;30146;52.268;20.944;2023-04-06T10:31:53;100694.59;;;4.75;52.13
44441;BME280;30146;52.268;20.944;2023-04-06T10:38:08;100690.71;;;4.69;52.40
44441;BME280;30146;52.268;20.944;2023-04-06T10:40:41;100688.08;;;4.63;52.55
44441;BME280;30146;52.268;20.944;2023-04-06T10:43:58;100689.50;;;4.57;52.69
44441;BME280;30146;52.268;20.944;2023-04-06T10:46:30;100685.20;;;4.55;53.27
44441;BME280;30146;52.268;20.944;2023-04-06T10:49:12;100687.88;;;4.53;53.29
44441;BME280;30146;52.268;20.944;2023-04-06T10:51:43;100678.50;;;4.50;53.84
44441;BME280;30146;52.268;20.944;2023-04-06T10:54:15;100672.34;;;4.48;53.85
44441;BME280;30146;52.268;20.944;2023-04-06T10:56:49;100668.87;;;4.43;53.69
44441;BME280;30146;52.268;20.944;2023-04-06T10:59:22;100666.89;;;4.37;54.00
44441;BME280;30146;52.268;20.944;2023-04-06T11:02:04;100667.13;;;4.33;54.14
44441;BME280;30146;52.268;20.944;2023-04-06T11:04:43;100661.44;;;4.27;54.39
44441;BME280;30146;52.268;20.944;2023-04-06T11:07:25;100667.44;;;4.23;54.76
44441;BME280;30146;52.268;20.944;2023-04-06T11:10:05;100667.90;;;4.21;54.74
44441;BME280;30146;52.268;20.944;2023-04-06T11:12:54;100665.14;;;4.19;54.56
44441;BME280;30146;52.268;20.944;2023-04-06T11:15:33;100662.86;;;4.15;54.94
44441;BME280;30146;52.268;20.944;2023-04-06T11:18:16;100663.67;;;4.14;54.81
44441;BME280;30146;52.268;20.944;2023-04-06T11:20:57;100664.40;;;4.15;55.12
44441;BME280;30146;52.268;20.944;2023-04-06T11:23:30;100658.98;;;4.16;55.62
44441;BME280;30146;52.268;20.944;2023-04-06T11:26:01;100653.50;;;4.20;55.54
44441;BME280;30146;52.268;20.944;2023-04-06T11:28:34;100649.29;;;4.21;55.61
44441;BME280;30146;52.268;20.944;2023-04-06T11:31:15;100642.21;;;4.23;55.38
44441;BME280;30146;52.268;20.944;2023-04-06T11:34:49;100642.05;;;4.23;55.67
44441;BME280;30146;52.268;20.944;2023-04-06T11:37:20;100637.67;;;4.24;55.95
44441;BME280;30146;52.268;20.944;2023-04-06T11:42:57;100638.99;;;4.22;55.93
44441;BME280;30146;52.268;20.944;2023-04-06T11:45:42;100631.98;;;4.28;56.10
44441;BME280;30146;52.268;20.944;2023-04-06T11:48:27;100627.83;;;4.31;56.21
44441;BME280;30146;52.268;20.944;2023-04-06T11:50:59;100627.83;;;4.31;55.82
44441;BME280;30146;52.268;20.944;2023-04-06T11:57:01;100615.42;;;4.28;56.09
44441;BME280;30146;52.268;20.944;2023-04-06T11:59:33;100616.60;;;4.28;55.91
44441;BME280;30146;52.268;20.944;2023-04-06T12:02:07;100613.38;;;4.27;55.81
44441;BME280;30146;52.268;20.944;2023-04-06T12:04:38;100606.38;;;4.24;55.87
44441;BME280;30146;52.268;20.944;2023-04-06T12:07:10;100609.21;;;4.22;56.09
44441;BME280;30146;52.268;20.944;2023-04-06T12:09:41;100604.64;;;4.22;56.16
44441;BME280;30146;52.268;20.944;2023-04-06T12:12:12;100600.30;;;4.25;55.95
44441;BME280;30146;52.268;20.944;2023-04-06T12:14:46;100596.83;;;4.29;56.17
44441;BME280;30146;52.268;20.944;2023-04-06T12:17:17;100593.32;;;4.32;56.32
44441;BME280;30146;52.268;20.944;2023-04-06T12:19:49;100591.02;;;4.35;56.64
44441;BME280;30146;52.268;20.944;2023-04-06T12:22:20;100590.09;;;4.39;56.61
44441;BME280;30146;52.268;20.944;2023-04-06T12:24:52;100584.58;;;4.43;56.53
44441;BME280;30146;52.268;20.944;2023-04-06T12:27:23;100578.70;;;4.45;56.37
44441;BME280;30146;52.268;20.944;2023-04-06T12:29:54;100579.11;;;4.49;56.29
44441;BME280;30146;52.268;20.944;2023-04-06T12:32:33;100579.20;;;4.54;56.34
44441;BME280;30146;52.268;20.944;2023-04-06T12:35:05;100579.95;;;4.57;56.63
44441;BME280;30146;52.268;20.944;2023-04-06T12:37:42;100573.88;;;4.59;56.30
44441;BME280;30146;52.268;20.944;2023-04-06T12:40:27;100573.90;;;4.60;56.22
44441;BME280;30146;52.268;20.944;2023-04-06T12:43:11;100575.83;;;4.63;56.41
44441;BME280;30146;52.268;20.944;2023-04-06T12:45:43;100578.60;;;4.68;56.48
44441;BME280;30146;52.268;20.944;2023-04-06T12:48:14;100577.65;;;4.71;56.53
44441;BME280;30146;52.268;20.944;2023-04-06T12:50:56;100571.79;;;4.74;56.68
44441;BME280;30146;52.268;20.944;2023-04-06T12:53:28;100566.59;;;4.77;56.64
44441;BME280;30146;52.268;20.944;2023-04-06T12:56:15;100562.23;;;4.79;56.30
44441;BME280;30146;52.268;20.944;2023-04-06T12:58:47;100570.04;;;4.81;56.42
44441;BME280;30146;52.268;20.944;2023-04-06T13:01:18;100561.76;;;4.82;56.50
44441;BME280;30146;52.268;20.944;2023-04-06T13:03:52;100562.11;;;4.82;56.32
44441;BME280;30146;52.268;20.944;2023-04-06T13:06:25;100559.55;;;4.81;56.34
44441;BME280;30146;52.268;20.944;2023-04-06T13:08:57;100558.52;;;4.80;56.33
44441;BME280;30146;52.268;20.944;2023-04-06T13:11:29;100560.34;;;4.78;56.43
44441;BME280;30146;52.268;20.944;2023-04-06T13:14:00;100558.76;;;4.75;56.47
44441;BME280;30146;52.268;20.944;2023-04-06T13:16:31;100559.88;;;4.71;56.34
44441;BME280;30146;52.268;20.944;2023-04-06T13:19:03;100556.59;;;4.67;56.44
44441;BME280;30146;52.268;20.944;2023-04-06T13:21:34;100551.33;;;4.67;56.57
44441;BME280;30146;52.268;20.944;2023-04-06T13:24:05;100549.26;;;4.65;56.76
44441;BME280;30146;52.268;20.944;2023-04-06T13:26:37;100551.30;;;4.65;56.91
44441;BME280;30146;52.268;20.944;2023-04-06T13:29:08;100547.71;;;4.63;56.89
44441;BME280;30146;52.268;20.944;2023-04-06T13:31:39;100542.92;;;4.60;56.87
44441;BME280;30146;52.268;20.944;2023-04-06T13:34:11;100541.89;;;4.59;57.13
44441;BME280;30146;52.268;20.944;2023-04-06T13:36:42;100538.83;;;4.58;57.14
44441;BME280;30146;52.268;20.944;2023-04-06T13:39:13;100534.77;;;4.58;57.26
44441;BME280;30146;52.268;20.944;2023-04-06T13:41:44;100528.13;;;4.57;57.37
44441;BME280;30146;52.268;20.944;2023-04-06T13:44:21;100526.77;;;4.57;57.20
44441;BME280;30146;52.268;20.944;2023-04-06T13:46:55;100532.86;;;4.56;57.76